createdAt,value
2022-09-15T00:09:35.930Z,10.73
2022-09-15T00:19:39.053Z,9.93
2022-09-15T00:24:41.469Z,10.80
2022-09-15T00:29:43.172Z,11.00
2022-09-15T00:34:44.582Z,11.80
2022-09-15T00:44:49.951Z,10.68
2022-09-15T00:49:59.012Z,11.45
2022-09-15T00:55:03.747Z,11.75
2022-09-15T01:00:11.113Z,12.57
2022-09-15T01:05:15.388Z,12.35
2022-09-15T01:10:27.774Z,10.80
2022-09-15T01:16:01.531Z,10.85
2022-09-15T01:21:24.672Z,11.70
2022-09-15T01:26:44.109Z,11.32
2022-09-15T01:32:13.123Z,12.00
2022-09-15T01:37:20.928Z,11.65
2022-09-15T01:42:24.905Z,11.05
2022-09-15T01:47:29.788Z,11.88
2022-09-15T01:52:32.256Z,11.25
2022-09-15T01:57:33.736Z,12.43
2022-09-15T02:07:48.918Z,13.07
2022-09-15T02:12:59.841Z,13.68
2022-09-15T02:18:03.776Z,11.60
2022-09-15T02:23:11.377Z,12.23
2022-09-15T02:28:15.993Z,12.15
2022-09-15T02:33:20.950Z,11.65
2022-09-15T02:38:23.002Z,11.48
2022-09-15T02:43:24.405Z,10.40
2022-09-15T02:53:27.111Z,10.73
2022-09-15T02:58:28.733Z,10.73
2022-09-15T03:03:31.977Z,11.55
2022-09-15T03:08:33.472Z,11.95
2022-09-15T03:13:34.794Z,12.10
2022-09-15T03:23:38.226Z,12.13
2022-09-15T03:33:41.263Z,11.60
2022-09-15T03:43:43.853Z,11.77
2022-09-15T03:48:45.401Z,12.05
2022-09-15T03:53:46.754Z,12.95
2022-09-15T04:03:51.359Z,12.70
2022-09-15T04:08:54.201Z,12.68
2022-09-15T04:13:56.221Z,13.57
2022-09-15T04:18:57.915Z,13.70
2022-09-15T04:23:59.371Z,14.25
2022-09-15T04:29:04.600Z,14.20
2022-09-15T04:34:06.407Z,14.32
2022-09-15T04:44:09.111Z,13.25
2022-09-15T04:54:11.713Z,12.02
2022-09-15T05:04:16.052Z,13.43
2022-09-15T05:14:18.828Z,12.52
2022-09-15T05:19:20.270Z,12.32
2022-09-15T05:24:21.791Z,12.57
2022-09-15T05:29:23.203Z,11.90
2022-09-15T05:39:25.795Z,12.93
2022-09-15T05:49:29.421Z,12.23
2022-09-15T05:54:30.763Z,13.00
2022-09-15T06:04:34.746Z,12.25
2022-09-15T06:09:36.120Z,11.98
2022-09-15T06:19:38.862Z,12.13
2022-09-15T06:29:41.600Z,12.32
2022-09-15T06:39:44.569Z,13.10
2022-09-15T06:44:45.905Z,12.27
2022-09-15T06:54:49.773Z,10.73
2022-09-15T06:59:51.225Z,10.90
2022-09-15T07:04:52.567Z,11.20
2022-09-15T07:14:55.171Z,10.48
2022-09-15T07:19:56.581Z,9.77
2022-09-15T07:24:57.915Z,8.90
2022-09-15T07:35:01.719Z,6.93
2022-09-15T07:40:03.568Z,5.97
2022-09-15T07:45:05.491Z,6.53
2022-09-15T07:50:07.242Z,7.38
2022-09-15T07:55:09.416Z,8.77
2022-09-15T08:00:11.477Z,8.25
2022-09-15T08:05:12.835Z,8.77
2022-09-15T08:10:14.283Z,8.60
2022-09-15T08:15:15.636Z,7.75
2022-09-15T08:20:17.330Z,7.13
2022-09-15T08:25:18.746Z,4.97
2022-09-15T08:30:21.219Z,5.25
2022-09-15T08:35:23.364Z,5.00
2022-09-15T08:40:36.720Z,3.50
2022-09-15T08:45:53.163Z,4.80
2022-09-15T08:50:57.988Z,3.85
2022-09-15T08:56:05.434Z,4.43
2022-09-15T09:01:21.747Z,3.63
2022-09-15T09:06:58.366Z,4.07
2022-09-15T09:12:27.413Z,1.55
2022-09-15T09:17:46.729Z,1.52
2022-09-15T09:22:52.194Z,1.83
2022-09-15T09:27:54.218Z,1.42
2022-09-15T09:33:23.945Z,1.75
2022-09-15T09:38:36.458Z,1.60
2022-09-15T09:43:38.233Z,1.27
2022-09-15T09:48:43.220Z,1.58
2022-09-15T09:53:53.377Z,1.85
2022-09-15T09:58:54.897Z,1.50
2022-09-15T10:04:19.568Z,1.35
2022-09-15T10:09:20.977Z,1.25
2022-09-15T10:14:38.410Z,1.70
2022-09-15T10:19:42.534Z,1.60
2022-09-15T10:24:44.335Z,1.48
2022-09-15T10:29:46.149Z,1.73
2022-09-15T10:34:48.800Z,1.40
2022-09-15T10:39:55.743Z,1.40
2022-09-15T10:45:09.581Z,1.40
2022-09-15T10:50:26.805Z,1.77
2022-09-15T10:55:52.199Z,0.80
2022-09-15T11:01:18.797Z,0.88
2022-09-15T11:06:26.538Z,0.82
2022-09-15T11:11:36.216Z,1.13
2022-09-15T11:17:12.314Z,0.95
2022-09-15T11:22:39.050Z,1.08
2022-09-15T11:27:50.871Z,1.20
2022-09-15T11:33:20.394Z,1.23
2022-09-15T11:38:30.637Z,2.00
2022-09-15T11:43:46.012Z,2.78
2022-09-15T11:48:57.292Z,2.75
2022-09-15T11:59:17.189Z,2.25
2022-09-15T12:04:41.826Z,1.92
2022-09-15T12:09:43.295Z,1.70
2022-09-15T12:14:46.610Z,1.48
2022-09-15T12:20:14.162Z,2.45
2022-09-15T12:25:26.585Z,1.83
2022-09-15T12:30:41.533Z,2.15
2022-09-15T12:35:42.867Z,2.03
2022-09-15T12:40:44.285Z,1.88
2022-09-15T12:46:01.759Z,2.30
2022-09-15T12:51:05.606Z,1.40
2022-09-15T12:56:11.550Z,2.60
2022-09-15T13:01:19.407Z,0.80
2022-09-15T13:06:25.202Z,0.90
2022-09-15T13:11:50.125Z,0.77
2022-09-15T13:16:54.764Z,0.98
2022-09-15T13:22:11.358Z,0.90
2022-09-15T13:27:16.469Z,0.80
2022-09-15T13:32:33.066Z,1.20
2022-09-15T13:38:08.170Z,1.80
2022-09-15T13:43:10.989Z,1.10
2022-09-15T13:48:27.414Z,0.90
2022-09-15T13:53:47.432Z,1.00
2022-09-15T13:59:01.715Z,1.30
2022-09-15T14:04:17.492Z,0.88
2022-09-15T14:14:27.354Z,1.08
2022-09-15T14:19:33.279Z,1.10
2022-09-15T14:24:40.068Z,0.90
2022-09-15T14:29:43.229Z,1.08
2022-09-15T14:34:45.634Z,1.10
2022-09-15T14:39:57.364Z,0.93
2022-09-15T14:50:33.796Z,1.20
2022-09-15T14:55:45.037Z,1.27
2022-09-15T15:06:27.684Z,1.15
2022-09-15T15:11:27.840Z,1.50
2022-09-15T15:16:31.122Z,1.70
2022-09-15T15:21:43.834Z,1.40
2022-09-15T15:26:50.240Z,1.30
2022-09-15T15:31:51.874Z,1.63
2022-09-15T15:37:02.557Z,1.40
2022-09-15T15:42:08.443Z,1.42
2022-09-15T15:47:12.774Z,1.45
2022-09-15T15:52:14.162Z,1.20
2022-09-15T15:57:28.080Z,1.10
2022-09-15T16:02:30.314Z,0.77
2022-09-15T16:07:33.495Z,0.85
2022-09-15T16:12:35.549Z,1.05
2022-09-15T16:17:37.037Z,0.70
2022-09-15T16:22:40.522Z,0.90
2022-09-15T16:27:41.967Z,0.82
2022-09-15T16:32:43.420Z,0.70
2022-09-15T16:37:44.830Z,1.00
2022-09-15T16:42:47.702Z,0.98
2022-09-15T16:47:49.120Z,1.08
2022-09-15T16:52:51.631Z,0.90
2022-09-15T16:57:53.041Z,1.17
2022-09-15T17:02:54.420Z,1.08
2022-09-15T17:07:55.885Z,1.25
2022-09-15T17:12:57.591Z,0.90
2022-09-15T17:17:59.032Z,0.80
2022-09-15T17:23:01.701Z,0.93
2022-09-15T17:28:03.140Z,0.90
2022-09-15T17:33:12.071Z,0.73
2022-09-15T17:38:14.557Z,1.10
2022-09-15T17:43:19.558Z,1.23
2022-09-15T17:48:22.447Z,0.77
2022-09-15T17:53:28.145Z,0.80
2022-09-15T17:58:31.304Z,0.98
2022-09-15T18:03:35.205Z,1.33
2022-09-15T18:08:36.765Z,0.93
2022-09-15T18:13:38.193Z,1.10
2022-09-15T18:18:41.092Z,1.08
2022-09-15T18:23:42.553Z,1.02
2022-09-15T18:28:44.154Z,1.27
2022-09-15T18:33:45.668Z,1.17
2022-09-15T18:38:47.087Z,1.00
2022-09-15T18:43:51.609Z,1.13
2022-09-15T18:48:53.041Z,1.10
2022-09-15T18:53:54.717Z,1.23
2022-09-15T18:58:56.195Z,1.30
2022-09-15T19:03:57.875Z,1.20
2022-09-15T19:08:59.369Z,1.08
2022-09-15T19:14:00.916Z,1.30
2022-09-15T19:19:02.446Z,1.30
2022-09-15T19:24:04.044Z,1.33
2022-09-15T19:29:06.476Z,1.20
2022-09-15T19:34:08.102Z,1.02
2022-09-15T19:39:12.073Z,1.23
2022-09-15T19:44:13.517Z,1.40
2022-09-15T19:49:15.248Z,1.23
2022-09-15T19:54:16.709Z,1.30
2022-09-15T19:59:19.608Z,1.48
2022-09-15T20:04:21.071Z,1.50
2022-09-15T20:09:22.703Z,1.27
2022-09-15T20:14:24.313Z,1.23
2022-09-15T20:19:25.777Z,1.40
2022-09-15T20:24:27.141Z,1.38
2022-09-15T20:29:28.736Z,1.58
2022-09-15T20:34:30.225Z,1.40
2022-09-15T20:39:31.603Z,1.60
2022-09-15T20:44:33.000Z,1.50
2022-09-15T20:49:34.419Z,1.92
2022-09-15T20:54:35.805Z,1.42
2022-09-15T20:59:37.294Z,1.23
2022-09-15T21:04:38.711Z,1.33
2022-09-15T21:09:40.113Z,1.23
2022-09-15T21:14:41.497Z,1.15
2022-09-15T21:19:43.083Z,1.10
2022-09-15T21:24:44.586Z,0.95
2022-09-15T21:29:46.171Z,1.10
2022-09-15T21:34:47.555Z,1.40
2022-09-15T21:39:48.922Z,1.33
2022-09-15T21:44:50.848Z,1.20
2022-09-15T21:49:52.252Z,1.00
2022-09-15T21:55:41.402Z,0.90
2022-09-15T22:00:42.836Z,0.90
2022-09-15T22:05:46.142Z,1.02
2022-09-15T22:10:47.473Z,1.13
2022-09-15T22:20:50.321Z,0.77
2022-09-15T22:25:51.664Z,1.17
2022-09-15T22:35:57.977Z,1.08
2022-09-15T22:41:14.455Z,0.93
2022-09-15T22:46:17.849Z,1.02
2022-09-15T22:51:19.250Z,1.20
2022-09-15T23:01:27.903Z,0.93
2022-09-15T23:06:32.003Z,1.02
2022-09-15T23:11:34.176Z,1.10
2022-09-15T23:16:35.852Z,1.20
2022-09-15T23:21:37.243Z,1.00
2022-09-15T23:31:40.214Z,1.05
2022-09-15T23:36:41.687Z,1.05
2022-09-15T23:51:46.267Z,0.90
2022-09-15T23:56:47.618Z,0.80
